KHOP 210656Z AUTO 15003KT 10SM CLR 23/17 A3019 RMK AO2 SLP220 T02260166